sensor_id;sensor_type;location;lat;lon;timestamp;P1;durP1;ratioP1;P2;durP2;ratioP2
37791;SDS011;29527;55.766;37.570;2023-06-10T00:02:08;4.28;;;2.50;;
37791;SDS011;29527;55.766;37.570;2023-06-10T00:04:34;3.22;;;2.47;;
37791;SDS011;29527;55.766;37.570;2023-06-10T00:07:02;5.10;;;2.10;;
37791;SDS011;29527;55.766;37.570;2023-06-10T00:09:29;4.70;;;2.22;;
37791;SDS011;29527;55.766;37.570;2023-06-10T00:11:54;4.03;;;2.10;;
37791;SDS011;29527;55.766;37.570;2023-06-10T00:14:20;5.05;;;2.10;;
37791;SDS011;29527;55.766;37.570;2023-06-10T00:16:45;3.38;;;2.42;;
37791;SDS011;29527;55.766;37.570;2023-06-10T00:19:11;2.60;;;1.95;;
37791;SDS011;29527;55.766;37.570;2023-06-10T00:21:39;6.43;;;2.45;;
37791;SDS011;29527;55.766;37.570;2023-06-10T00:24:06;4.72;;;2.60;;
37791;SDS011;29527;55.766;37.570;2023-06-10T00:26:38;5.10;;;2.35;;
37791;SDS011;29527;55.766;37.570;2023-06-10T00:29:04;4.65;;;2.88;;
37791;SDS011;29527;55.766;37.570;2023-06-10T00:31:30;6.38;;;2.45;;
37791;SDS011;29527;55.766;37.570;2023-06-10T00:33:56;3.50;;;2.40;;
37791;SDS011;29527;55.766;37.570;2023-06-10T00:36:21;4.97;;;2.83;;
37791;SDS011;29527;55.766;37.570;2023-06-10T00:38:47;5.32;;;2.28;;
37791;SDS011;29527;55.766;37.570;2023-06-10T00:41:13;5.63;;;2.60;;
37791;SDS011;29527;55.766;37.570;2023-06-10T00:43:39;4.07;;;2.22;;
37791;SDS011;29527;55.766;37.570;2023-06-10T00:46:05;4.07;;;2.08;;
37791;SDS011;29527;55.766;37.570;2023-06-10T00:48:30;4.60;;;2.58;;
37791;SDS011;29527;55.766;37.570;2023-06-10T00:50:57;2.83;;;2.13;;
37791;SDS011;29527;55.766;37.570;2023-06-10T00:53:24;4.03;;;2.20;;
37791;SDS011;29527;55.766;37.570;2023-06-10T00:55:50;4.47;;;2.28;;
37791;SDS011;29527;55.766;37.570;2023-06-10T00:58:15;6.20;;;2.50;;
37791;SDS011;29527;55.766;37.570;2023-06-10T01:00:41;7.70;;;2.00;;
37791;SDS011;29527;55.766;37.570;2023-06-10T01:03:07;3.47;;;2.00;;
37791;SDS011;29527;55.766;37.570;2023-06-10T01:05:36;5.80;;;1.90;;
37791;SDS011;29527;55.766;37.570;2023-06-10T01:08:09;2.75;;;2.25;;
37791;SDS011;29527;55.766;37.570;2023-06-10T01:10:53;2.80;;;2.50;;
37791;SDS011;29527;55.766;37.570;2023-06-10T01:13:23;4.75;;;2.40;;
37791;SDS011;29527;55.766;37.570;2023-06-10T01:15:53;3.35;;;2.60;;
37791;SDS011;29527;55.766;37.570;2023-06-10T01:18:19;4.05;;;2.30;;
37791;SDS011;29527;55.766;37.570;2023-06-10T01:20:47;3.42;;;2.67;;
37791;SDS011;29527;55.766;37.570;2023-06-10T01:23:14;2.47;;;2.25;;
37791;SDS011;29527;55.766;37.570;2023-06-10T01:25:46;4.20;;;2.65;;
37791;SDS011;29527;55.766;37.570;2023-06-10T01:33:48;4.00;;;2.90;;
37791;SDS011;29527;55.766;37.570;2023-06-10T01:36:18;3.58;;;2.60;;
37791;SDS011;29527;55.766;37.570;2023-06-10T01:38:47;3.08;;;2.42;;
37791;SDS011;29527;55.766;37.570;2023-06-10T01:41:14;4.18;;;2.47;;
37791;SDS011;29527;55.766;37.570;2023-06-10T01:43:45;6.47;;;2.75;;
37791;SDS011;29527;55.766;37.570;2023-06-10T01:46:11;7.70;;;2.58;;
37791;SDS011;29527;55.766;37.570;2023-06-10T01:48:40;4.22;;;2.60;;
37791;SDS011;29527;55.766;37.570;2023-06-10T01:51:07;2.70;;;2.50;;
37791;SDS011;29527;55.766;37.570;2023-06-10T01:53:32;4.45;;;2.90;;
37791;SDS011;29527;55.766;37.570;2023-06-10T01:55:58;7.55;;;2.60;;
37791;SDS011;29527;55.766;37.570;2023-06-10T01:58:23;5.63;;;2.88;;
37791;SDS011;29527;55.766;37.570;2023-06-10T02:00:49;5.03;;;2.70;;
37791;SDS011;29527;55.766;37.570;2023-06-10T02:03:15;8.75;;;2.72;;
37791;SDS011;29527;55.766;37.570;2023-06-10T02:05:41;4.18;;;2.40;;
37791;SDS011;29527;55.766;37.570;2023-06-10T02:08:06;6.28;;;2.90;;
37791;SDS011;29527;55.766;37.570;2023-06-10T02:10:32;6.32;;;2.63;;
37791;SDS011;29527;55.766;37.570;2023-06-10T02:12:57;4.72;;;2.88;;
37791;SDS011;29527;55.766;37.570;2023-06-10T02:15:23;4.13;;;2.83;;
37791;SDS011;29527;55.766;37.570;2023-06-10T02:17:50;4.80;;;3.00;;
37791;SDS011;29527;55.766;37.570;2023-06-10T02:20:15;5.40;;;2.80;;
37791;SDS011;29527;55.766;37.570;2023-06-10T02:22:41;3.08;;;2.67;;
37791;SDS011;29527;55.766;37.570;2023-06-10T02:25:07;5.68;;;2.72;;
37791;SDS011;29527;55.766;37.570;2023-06-10T02:27:33;6.15;;;2.80;;
37791;SDS011;29527;55.766;37.570;2023-06-10T02:29:58;3.05;;;2.53;;
37791;SDS011;29527;55.766;37.570;2023-06-10T02:32:24;9.80;;;2.67;;
37791;SDS011;29527;55.766;37.570;2023-06-10T02:34:50;3.63;;;2.38;;
37791;SDS011;29527;55.766;37.570;2023-06-10T02:37:16;4.25;;;2.13;;
37791;SDS011;29527;55.766;37.570;2023-06-10T02:39:42;2.90;;;1.90;;
37791;SDS011;29527;55.766;37.570;2023-06-10T02:42:08;6.13;;;2.53;;
37791;SDS011;29527;55.766;37.570;2023-06-10T02:44:33;4.85;;;2.10;;
37791;SDS011;29527;55.766;37.570;2023-06-10T02:46:59;4.03;;;2.20;;
37791;SDS011;29527;55.766;37.570;2023-06-10T02:49:25;2.38;;;1.45;;
37791;SDS011;29527;55.766;37.570;2023-06-10T02:51:53;2.80;;;2.13;;
37791;SDS011;29527;55.766;37.570;2023-06-10T02:54:22;8.02;;;2.20;;
37791;SDS011;29527;55.766;37.570;2023-06-10T02:56:48;3.42;;;2.20;;
37791;SDS011;29527;55.766;37.570;2023-06-10T02:59:14;2.60;;;1.92;;
37791;SDS011;29527;55.766;37.570;2023-06-10T03:01:40;2.90;;;2.13;;
37791;SDS011;29527;55.766;37.570;2023-06-10T03:04:06;2.17;;;1.85;;
37791;SDS011;29527;55.766;37.570;2023-06-10T03:06:32;6.53;;;2.40;;
37791;SDS011;29527;55.766;37.570;2023-06-10T03:09:02;5.22;;;1.70;;
37791;SDS011;29527;55.766;37.570;2023-06-10T03:11:29;3.47;;;2.38;;
37791;SDS011;29527;55.766;37.570;2023-06-10T03:13:55;2.40;;;2.20;;
37791;SDS011;29527;55.766;37.570;2023-06-10T03:16:22;2.72;;;2.17;;
37791;SDS011;29527;55.766;37.570;2023-06-10T03:18:50;2.95;;;2.08;;
37791;SDS011;29527;55.766;37.570;2023-06-10T03:21:16;2.55;;;2.00;;
37791;SDS011;29527;55.766;37.570;2023-06-10T03:23:42;2.83;;;2.05;;
37791;SDS011;29527;55.766;37.570;2023-06-10T03:26:07;4.15;;;1.80;;
37791;SDS011;29527;55.766;37.570;2023-06-10T03:28:35;3.70;;;1.92;;
37791;SDS011;29527;55.766;37.570;2023-06-10T03:31:00;5.30;;;1.83;;
37791;SDS011;29527;55.766;37.570;2023-06-10T03:33:26;3.58;;;1.88;;
37791;SDS011;29527;55.766;37.570;2023-06-10T03:35:51;2.78;;;1.80;;
37791;SDS011;29527;55.766;37.570;2023-06-10T03:38:18;5.05;;;2.08;;
37791;SDS011;29527;55.766;37.570;2023-06-10T03:40:44;5.93;;;2.10;;
37791;SDS011;29527;55.766;37.570;2023-06-10T03:43:09;1.92;;;1.70;;
37791;SDS011;29527;55.766;37.570;2023-06-10T03:45:35;2.60;;;1.67;;
37791;SDS011;29527;55.766;37.570;2023-06-10T03:48:01;3.10;;;1.83;;
37791;SDS011;29527;55.766;37.570;2023-06-10T03:50:28;4.20;;;1.95;;
37791;SDS011;29527;55.766;37.570;2023-06-10T03:52:54;3.75;;;1.63;;
37791;SDS011;29527;55.766;37.570;2023-06-10T03:55:20;5.32;;;1.73;;
37791;SDS011;29527;55.766;37.570;2023-06-10T03:57:47;2.08;;;1.55;;
37791;SDS011;29527;55.766;37.570;2023-06-10T04:00:14;5.13;;;1.50;;
37791;SDS011;29527;55.766;37.570;2023-06-10T04:02:41;2.22;;;1.50;;
37791;SDS011;29527;55.766;37.570;2023-06-10T04:05:14;2.67;;;1.45;;
37791;SDS011;29527;55.766;37.570;2023-06-10T04:07:41;4.10;;;1.60;;
37791;SDS011;29527;55.766;37.570;2023-06-10T04:10:08;3.38;;;1.67;;
37791;SDS011;29527;55.766;37.570;2023-06-10T04:12:35;3.38;;;1.50;;
37791;SDS011;29527;55.766;37.570;2023-06-10T04:15:01;2.28;;;1.30;;
37791;SDS011;29527;55.766;37.570;2023-06-10T04:17:30;3.67;;;1.20;;
37791;SDS011;29527;55.766;37.570;2023-06-10T04:19:56;2.45;;;1.20;;
37791;SDS011;29527;55.766;37.570;2023-06-10T04:22:22;2.13;;;1.17;;
37791;SDS011;29527;55.766;37.570;2023-06-10T04:24:48;2.10;;;1.10;;
37791;SDS011;29527;55.766;37.570;2023-06-10T04:27:13;3.72;;;1.40;;
37791;SDS011;29527;55.766;37.570;2023-06-10T04:29:39;2.90;;;1.33;;
37791;SDS011;29527;55.766;37.570;2023-06-10T04:32:06;2.22;;;1.50;;
37791;SDS011;29527;55.766;37.570;2023-06-10T04:34:35;1.48;;;1.20;;
37791;SDS011;29527;55.766;37.570;2023-06-10T04:37:01;3.65;;;1.20;;
37791;SDS011;29527;55.766;37.570;2023-06-10T04:39:27;4.95;;;1.33;;
37791;SDS011;29527;55.766;37.570;2023-06-10T04:41:52;3.40;;;1.20;;
37791;SDS011;29527;55.766;37.570;2023-06-10T04:44:18;1.70;;;1.20;;
37791;SDS011;29527;55.766;37.570;2023-06-10T04:46:44;4.55;;;1.23;;
37791;SDS011;29527;55.766;37.570;2023-06-10T04:49:10;1.40;;;1.25;;
37791;SDS011;29527;55.766;37.570;2023-06-10T04:51:36;4.43;;;1.40;;
37791;SDS011;29527;55.766;37.570;2023-06-10T04:54:03;4.10;;;1.25;;
37791;SDS011;29527;55.766;37.570;2023-06-10T04:56:29;3.58;;;1.20;;
37791;SDS011;29527;55.766;37.570;2023-06-10T04:58:56;1.20;;;1.10;;
37791;SDS011;29527;55.766;37.570;2023-06-10T05:01:22;7.75;;;1.55;;
37791;SDS011;29527;55.766;37.570;2023-06-10T05:03:47;1.95;;;1.10;;
37791;SDS011;29527;55.766;37.570;2023-06-10T05:06:13;3.38;;;1.65;;
37791;SDS011;29527;55.766;37.570;2023-06-10T05:08:38;5.38;;;1.23;;
37791;SDS011;29527;55.766;37.570;2023-06-10T05:11:04;4.68;;;1.40;;
37791;SDS011;29527;55.766;37.570;2023-06-10T05:13:30;5.20;;;1.40;;
37791;SDS011;29527;55.766;37.570;2023-06-10T05:15:55;2.42;;;1.10;;
37791;SDS011;29527;55.766;37.570;2023-06-10T05:18:21;4.45;;;1.38;;
37791;SDS011;29527;55.766;37.570;2023-06-10T05:20:46;1.80;;;1.27;;
37791;SDS011;29527;55.766;37.570;2023-06-10T05:23:12;2.70;;;1.63;;
37791;SDS011;29527;55.766;37.570;2023-06-10T05:25:37;1.35;;;1.20;;
37791;SDS011;29527;55.766;37.570;2023-06-10T05:28:03;3.17;;;1.63;;
37791;SDS011;29527;55.766;37.570;2023-06-10T05:30:29;2.47;;;1.30;;
37791;SDS011;29527;55.766;37.570;2023-06-10T05:32:54;2.55;;;1.30;;
37791;SDS011;29527;55.766;37.570;2023-06-10T05:35:21;2.17;;;1.40;;
37791;SDS011;29527;55.766;37.570;2023-06-10T05:37:47;4.35;;;1.48;;
37791;SDS011;29527;55.766;37.570;2023-06-10T05:40:13;4.15;;;1.70;;
37791;SDS011;29527;55.766;37.570;2023-06-10T05:42:38;4.68;;;1.65;;
37791;SDS011;29527;55.766;37.570;2023-06-10T05:45:05;3.55;;;1.40;;
37791;SDS011;29527;55.766;37.570;2023-06-10T05:47:31;6.78;;;1.58;;
37791;SDS011;29527;55.766;37.570;2023-06-10T05:49:57;2.60;;;1.50;;
37791;SDS011;29527;55.766;37.570;2023-06-10T05:52:23;4.90;;;1.90;;
37791;SDS011;29527;55.766;37.570;2023-06-10T05:54:49;4.50;;;1.45;;
37791;SDS011;29527;55.766;37.570;2023-06-10T05:57:15;6.15;;;1.70;;
37791;SDS011;29527;55.766;37.570;2023-06-10T05:59:40;2.88;;;1.50;;
37791;SDS011;29527;55.766;37.570;2023-06-10T06:02:06;2.20;;;2.00;;
37791;SDS011;29527;55.766;37.570;2023-06-10T06:04:32;5.20;;;1.60;;
37791;SDS011;29527;55.766;37.570;2023-06-10T06:06:57;4.00;;;1.58;;
37791;SDS011;29527;55.766;37.570;2023-06-10T06:09:23;5.22;;;1.92;;
37791;SDS011;29527;55.766;37.570;2023-06-10T06:11:48;4.50;;;1.60;;
37791;SDS011;29527;55.766;37.570;2023-06-10T06:14:14;1.92;;;1.20;;
37791;SDS011;29527;55.766;37.570;2023-06-10T06:16:39;4.13;;;1.50;;
37791;SDS011;29527;55.766;37.570;2023-06-10T06:19:05;4.00;;;1.40;;
37791;SDS011;29527;55.766;37.570;2023-06-10T06:21:31;3.60;;;1.20;;
37791;SDS011;29527;55.766;37.570;2023-06-10T06:23:56;4.32;;;1.40;;
37791;SDS011;29527;55.766;37.570;2023-06-10T06:26:22;3.35;;;1.60;;
37791;SDS011;29527;55.766;37.570;2023-06-10T06:28:48;5.63;;;1.75;;
37791;SDS011;29527;55.766;37.570;2023-06-10T06:31:14;3.03;;;1.38;;
37791;SDS011;29527;55.766;37.570;2023-06-10T06:33:39;3.47;;;1.10;;
37791;SDS011;29527;55.766;37.570;2023-06-10T06:36:05;2.55;;;1.40;;
37791;SDS011;29527;55.766;37.570;2023-06-10T06:38:31;3.60;;;1.50;;
37791;SDS011;29527;55.766;37.570;2023-06-10T06:40:56;2.90;;;1.23;;
37791;SDS011;29527;55.766;37.570;2023-06-10T06:43:27;1.35;;;1.10;;
37791;SDS011;29527;55.766;37.570;2023-06-10T06:45:53;2.55;;;0.98;;
37791;SDS011;29527;55.766;37.570;2023-06-10T06:48:18;1.25;;;0.98;;
37791;SDS011;29527;55.766;37.570;2023-06-10T06:50:44;4.57;;;1.30;;
37791;SDS011;29527;55.766;37.570;2023-06-10T06:53:09;2.30;;;0.93;;
37791;SDS011;29527;55.766;37.570;2023-06-10T06:55:35;5.35;;;1.08;;
37791;SDS011;29527;55.766;37.570;2023-06-10T06:58:01;4.47;;;0.70;;
37791;SDS011;29527;55.766;37.570;2023-06-10T07:00:29;5.13;;;1.17;;
37791;SDS011;29527;55.766;37.570;2023-06-10T07:02:55;4.80;;;1.42;;
37791;SDS011;29527;55.766;37.570;2023-06-10T07:05:23;3.40;;;1.40;;
37791;SDS011;29527;55.766;37.570;2023-06-10T07:07:51;6.50;;;1.20;;
37791;SDS011;29527;55.766;37.570;2023-06-10T07:10:23;2.75;;;1.10;;
37791;SDS011;29527;55.766;37.570;2023-06-10T07:12:50;2.47;;;1.10;;
37791;SDS011;29527;55.766;37.570;2023-06-10T07:15:16;3.58;;;1.10;;
37791;SDS011;29527;55.766;37.570;2023-06-10T07:17:42;4.25;;;1.20;;
37791;SDS011;29527;55.766;37.570;2023-06-10T07:20:08;2.03;;;1.00;;
37791;SDS011;29527;55.766;37.570;2023-06-10T07:22:34;1.80;;;0.95;;
37791;SDS011;29527;55.766;37.570;2023-06-10T07:25:00;4.43;;;1.10;;
37791;SDS011;29527;55.766;37.570;2023-06-10T07:27:26;2.10;;;0.95;;
37791;SDS011;29527;55.766;37.570;2023-06-10T07:29:51;2.20;;;1.13;;
37791;SDS011;29527;55.766;37.570;2023-06-10T07:32:17;1.85;;;1.00;;
37791;SDS011;29527;55.766;37.570;2023-06-10T07:34:43;2.42;;;1.05;;
37791;SDS011;29527;55.766;37.570;2023-06-10T07:37:08;1.52;;;1.00;;
37791;SDS011;29527;55.766;37.570;2023-06-10T07:39:34;7.28;;;1.25;;
37791;SDS011;29527;55.766;37.570;2023-06-10T07:42:00;4.13;;;1.10;;
37791;SDS011;29527;55.766;37.570;2023-06-10T07:44:26;2.60;;;1.00;;
37791;SDS011;29527;55.766;37.570;2023-06-10T07:46:51;4.95;;;1.10;;
37791;SDS011;29527;55.766;37.570;2023-06-10T07:49:17;3.20;;;1.00;;
37791;SDS011;29527;55.766;37.570;2023-06-10T07:51:43;5.65;;;0.98;;
37791;SDS011;29527;55.766;37.570;2023-06-10T07:54:08;2.20;;;0.90;;
37791;SDS011;29527;55.766;37.570;2023-06-10T07:56:34;6.43;;;1.25;;
37791;SDS011;29527;55.766;37.570;2023-06-10T07:59:00;3.33;;;1.10;;
37791;SDS011;29527;55.766;37.570;2023-06-10T08:01:25;3.25;;;1.10;;
37791;SDS011;29527;55.766;37.570;2023-06-10T08:03:51;4.93;;;1.13;;
37791;SDS011;29527;55.766;37.570;2023-06-10T08:06:16;3.45;;;0.80;;
37791;SDS011;29527;55.766;37.570;2023-06-10T08:08:43;2.25;;;0.68;;
37791;SDS011;29527;55.766;37.570;2023-06-10T08:11:12;4.57;;;1.00;;
37791;SDS011;29527;55.766;37.570;2023-06-10T08:13:38;5.70;;;1.23;;
37791;SDS011;29527;55.766;37.570;2023-06-10T08:16:03;4.30;;;0.90;;
37791;SDS011;29527;55.766;37.570;2023-06-10T08:18:29;3.78;;;0.80;;
37791;SDS011;29527;55.766;37.570;2023-06-10T08:20:55;4.13;;;1.08;;
37791;SDS011;29527;55.766;37.570;2023-06-10T08:23:20;4.70;;;0.88;;
37791;SDS011;29527;55.766;37.570;2023-06-10T08:25:46;2.78;;;0.75;;
37791;SDS011;29527;55.766;37.570;2023-06-10T08:28:12;4.05;;;1.15;;
37791;SDS011;29527;55.766;37.570;2023-06-10T08:30:37;2.95;;;0.90;;
37791;SDS011;29527;55.766;37.570;2023-06-10T08:33:03;1.02;;;0.60;;
37791;SDS011;29527;55.766;37.570;2023-06-10T08:35:28;6.00;;;1.05;;
37791;SDS011;29527;55.766;37.570;2023-06-10T08:37:54;7.80;;;1.10;;
37791;SDS011;29527;55.766;37.570;2023-06-10T08:40:19;2.50;;;0.90;;
37791;SDS011;29527;55.766;37.570;2023-06-10T08:42:48;1.52;;;0.70;;
37791;SDS011;29527;55.766;37.570;2023-06-10T08:45:18;6.80;;;1.13;;
37791;SDS011;29527;55.766;37.570;2023-06-10T08:47:46;4.03;;;1.00;;
37791;SDS011;29527;55.766;37.570;2023-06-10T08:50:18;2.53;;;0.80;;
37791;SDS011;29527;55.766;37.570;2023-06-10T08:52:44;3.53;;;1.25;;
37791;SDS011;29527;55.766;37.570;2023-06-10T08:55:14;2.40;;;0.90;;
37791;SDS011;29527;55.766;37.570;2023-06-10T08:57:47;3.58;;;1.10;;
37791;SDS011;29527;55.766;37.570;2023-06-10T09:00:14;3.30;;;1.20;;
37791;SDS011;29527;55.766;37.570;2023-06-10T09:02:41;1.35;;;1.20;;
37791;SDS011;29527;55.766;37.570;2023-06-10T09:05:08;5.93;;;1.10;;
37791;SDS011;29527;55.766;37.570;2023-06-10T09:07:34;8.63;;;1.10;;
37791;SDS011;29527;55.766;37.570;2023-06-10T09:10:01;10.50;;;5.00;;
37791;SDS011;29527;55.766;37.570;2023-06-10T09:12:29;8.82;;;1.42;;
37791;SDS011;29527;55.766;37.570;2023-06-10T09:14:55;4.15;;;1.00;;
37791;SDS011;29527;55.766;37.570;2023-06-10T09:17:21;5.68;;;1.05;;
37791;SDS011;29527;55.766;37.570;2023-06-10T09:19:47;4.25;;;1.25;;
37791;SDS011;29527;55.766;37.570;2023-06-10T09:22:13;3.40;;;1.00;;
37791;SDS011;29527;55.766;37.570;2023-06-10T09:24:38;4.40;;;1.13;;
37791;SDS011;29527;55.766;37.570;2023-06-10T09:27:08;3.13;;;0.93;;
37791;SDS011;29527;55.766;37.570;2023-06-10T09:32:12;0.95;;;0.77;;
37791;SDS011;29527;55.766;37.570;2023-06-10T09:34:38;4.55;;;1.35;;
37791;SDS011;29527;55.766;37.570;2023-06-10T09:37:05;4.80;;;0.80;;
37791;SDS011;29527;55.766;37.570;2023-06-10T09:39:30;5.63;;;1.10;;
37791;SDS011;29527;55.766;37.570;2023-06-10T09:41:56;8.45;;;1.13;;
37791;SDS011;29527;55.766;37.570;2023-06-10T09:44:21;2.15;;;1.10;;
37791;SDS011;29527;55.766;37.570;2023-06-10T09:46:49;8.77;;;1.10;;
37791;SDS011;29527;55.766;37.570;2023-06-10T09:49:19;5.18;;;0.90;;
37791;SDS011;29527;55.766;37.570;2023-06-10T09:51:54;6.88;;;2.55;;
37791;SDS011;29527;55.766;37.570;2023-06-10T09:54:21;9.70;;;5.97;;
37791;SDS011;29527;55.766;37.570;2023-06-10T09:56:47;4.07;;;1.27;;
37791;SDS011;29527;55.766;37.570;2023-06-10T09:59:14;2.85;;;0.80;;
37791;SDS011;29527;55.766;37.570;2023-06-10T10:01:39;4.05;;;1.00;;
37791;SDS011;29527;55.766;37.570;2023-06-10T10:04:05;3.47;;;1.02;;
37791;SDS011;29527;55.766;37.570;2023-06-10T10:06:30;4.35;;;1.00;;
37791;SDS011;29527;55.766;37.570;2023-06-10T10:08:56;5.55;;;1.10;;
37791;SDS011;29527;55.766;37.570;2023-06-10T10:11:22;5.80;;;1.25;;
37791;SDS011;29527;55.766;37.570;2023-06-10T10:13:49;2.88;;;0.75;;
37791;SDS011;29527;55.766;37.570;2023-06-10T10:16:20;11.45;;;1.30;;
37791;SDS011;29527;55.766;37.570;2023-06-10T10:18:59;70.65;;;4.57;;
37791;SDS011;29527;55.766;37.570;2023-06-10T10:21:31;124.68;;;8.55;;
37791;SDS011;29527;55.766;37.570;2023-06-10T10:24:05;66.35;;;4.18;;
37791;SDS011;29527;55.766;37.570;2023-06-10T10:26:38;65.57;;;5.43;;
37791;SDS011;29527;55.766;37.570;2023-06-10T10:34:21;5.05;;;0.90;;
37791;SDS011;29527;55.766;37.570;2023-06-10T10:37:14;54.05;;;4.00;;
37791;SDS011;29527;55.766;37.570;2023-06-10T10:39:39;11.40;;;1.05;;
37791;SDS011;29527;55.766;37.570;2023-06-10T10:42:05;50.00;;;4.53;;
37791;SDS011;29527;55.766;37.570;2023-06-10T10:44:35;94.70;;;5.82;;
37791;SDS011;29527;55.766;37.570;2023-06-10T10:47:03;146.95;;;9.38;;
37791;SDS011;29527;55.766;37.570;2023-06-10T10:49:32;81.30;;;4.97;;
37791;SDS011;29527;55.766;37.570;2023-06-10T10:52:00;53.47;;;3.67;;
37791;SDS011;29527;55.766;37.570;2023-06-10T10:54:31;84.72;;;5.90;;
37791;SDS011;29527;55.766;37.570;2023-06-10T10:57:13;196.43;;;12.88;;
37791;SDS011;29527;55.766;37.570;2023-06-10T11:02:15;108.45;;;8.10;;
37791;SDS011;29527;55.766;37.570;2023-06-10T11:04:56;9.23;;;1.40;;
37791;SDS011;29527;55.766;37.570;2023-06-10T11:07:24;11.52;;;1.23;;
37791;SDS011;29527;55.766;37.570;2023-06-10T11:09:57;5.68;;;1.23;;
37791;SDS011;29527;55.766;37.570;2023-06-10T11:12:26;7.45;;;1.27;;
37791;SDS011;29527;55.766;37.570;2023-06-10T11:15:25;42.92;;;2.80;;
37791;SDS011;29527;55.766;37.570;2023-06-10T11:25:50;47.28;;;3.42;;
37791;SDS011;29527;55.766;37.570;2023-06-10T11:28:19;38.47;;;2.30;;
37791;SDS011;29527;55.766;37.570;2023-06-10T11:30:45;23.45;;;2.03;;
37791;SDS011;29527;55.766;37.570;2023-06-10T11:33:17;22.08;;;2.40;;
37791;SDS011;29527;55.766;37.570;2023-06-10T11:35:43;21.33;;;2.00;;
37791;SDS011;29527;55.766;37.570;2023-06-10T11:38:09;7.78;;;1.63;;
37791;SDS011;29527;55.766;37.570;2023-06-10T11:40:36;19.35;;;1.48;;
37791;SDS011;29527;55.766;37.570;2023-06-10T11:43:03;32.75;;;2.53;;
37791;SDS011;29527;55.766;37.570;2023-06-10T11:45:29;100.05;;;6.72;;
37791;SDS011;29527;55.766;37.570;2023-06-10T11:47:55;78.82;;;6.28;;
37791;SDS011;29527;55.766;37.570;2023-06-10T11:50:31;36.50;;;3.20;;
37791;SDS011;29527;55.766;37.570;2023-06-10T11:52:58;13.23;;;1.30;;
37791;SDS011;29527;55.766;37.570;2023-06-10T11:55:40;30.88;;;2.75;;
37791;SDS011;29527;55.766;37.570;2023-06-10T11:58:12;121.82;;;7.38;;
37791;SDS011;29527;55.766;37.570;2023-06-10T12:00:59;33.17;;;2.58;;
37791;SDS011;29527;55.766;37.570;2023-06-10T12:03:27;3.05;;;1.02;;
37791;SDS011;29527;55.766;37.570;2023-06-10T12:06:05;17.25;;;1.70;;
37791;SDS011;29527;55.766;37.570;2023-06-10T12:08:32;4.05;;;0.80;;
37791;SDS011;29527;55.766;37.570;2023-06-10T12:10:59;4.18;;;0.88;;
37791;SDS011;29527;55.766;37.570;2023-06-10T12:13:28;8.38;;;1.60;;
37791;SDS011;29527;55.766;37.570;2023-06-10T12:15:54;45.53;;;2.72;;
37791;SDS011;29527;55.766;37.570;2023-06-10T12:18:23;6.38;;;0.90;;
37791;SDS011;29527;55.766;37.570;2023-06-10T12:20:49;19.00;;;1.38;;
37791;SDS011;29527;55.766;37.570;2023-06-10T12:23:16;212.10;;;12.98;;
37791;SDS011;29527;55.766;37.570;2023-06-10T12:25:49;163.90;;;9.45;;
37791;SDS011;29527;55.766;37.570;2023-06-10T12:28:25;34.70;;;2.80;;
37791;SDS011;29527;55.766;37.570;2023-06-10T12:30:51;73.75;;;4.03;;
37791;SDS011;29527;55.766;37.570;2023-06-10T12:33:31;146.20;;;7.72;;
37791;SDS011;29527;55.766;37.570;2023-06-10T12:35:56;71.55;;;5.57;;
37791;SDS011;29527;55.766;37.570;2023-06-10T12:38:25;74.53;;;4.22;;
37791;SDS011;29527;55.766;37.570;2023-06-10T12:40:54;81.43;;;4.32;;
37791;SDS011;29527;55.766;37.570;2023-06-10T12:43:26;21.08;;;2.03;;
37791;SDS011;29527;55.766;37.570;2023-06-10T12:45:51;11.57;;;1.38;;
37791;SDS011;29527;55.766;37.570;2023-06-10T12:48:18;51.03;;;3.70;;
37791;SDS011;29527;55.766;37.570;2023-06-10T12:50:50;103.78;;;5.88;;
37791;SDS011;29527;55.766;37.570;2023-06-10T12:53:16;102.85;;;6.72;;
37791;SDS011;29527;55.766;37.570;2023-06-10T12:55:42;36.28;;;2.70;;
37791;SDS011;29527;55.766;37.570;2023-06-10T12:58:10;26.35;;;2.20;;
37791;SDS011;29527;55.766;37.570;2023-06-10T13:00:36;7.28;;;1.40;;
37791;SDS011;29527;55.766;37.570;2023-06-10T13:03:02;54.67;;;3.58;;
37791;SDS011;29527;55.766;37.570;2023-06-10T13:05:28;47.42;;;3.13;;
37791;SDS011;29527;55.766;37.570;2023-06-10T13:07:54;21.17;;;2.10;;
37791;SDS011;29527;55.766;37.570;2023-06-10T13:10:20;21.45;;;1.50;;
37791;SDS011;29527;55.766;37.570;2023-06-10T13:12:47;36.95;;;3.05;;
37791;SDS011;29527;55.766;37.570;2023-06-10T13:15:13;61.80;;;3.20;;
37791;SDS011;29527;55.766;37.570;2023-06-10T13:17:40;84.43;;;5.57;;
37791;SDS011;29527;55.766;37.570;2023-06-10T13:20:06;60.20;;;3.80;;
37791;SDS011;29527;55.766;37.570;2023-06-10T13:22:33;46.97;;;2.70;;
37791;SDS011;29527;55.766;37.570;2023-06-10T13:25:00;77.20;;;5.10;;
37791;SDS011;29527;55.766;37.570;2023-06-10T13:27:30;39.03;;;2.58;;
37791;SDS011;29527;55.766;37.570;2023-06-10T13:29:56;66.22;;;3.83;;
37791;SDS011;29527;55.766;37.570;2023-06-10T13:32:21;46.75;;;3.40;;
37791;SDS011;29527;55.766;37.570;2023-06-10T13:34:47;84.68;;;5.35;;
37791;SDS011;29527;55.766;37.570;2023-06-10T13:37:14;212.10;;;11.25;;
37791;SDS011;29527;55.766;37.570;2023-06-10T13:39:40;47.97;;;4.05;;
37791;SDS011;29527;55.766;37.570;2023-06-10T13:42:06;9.05;;;1.75;;
37791;SDS011;29527;55.766;37.570;2023-06-10T13:44:33;8.52;;;1.50;;
37791;SDS011;29527;55.766;37.570;2023-06-10T13:47:01;23.45;;;2.10;;
37791;SDS011;29527;55.766;37.570;2023-06-10T13:49:28;32.90;;;2.13;;
37791;SDS011;29527;55.766;37.570;2023-06-10T13:51:53;28.10;;;2.47;;
37791;SDS011;29527;55.766;37.570;2023-06-10T13:54:19;28.77;;;2.40;;
37791;SDS011;29527;55.766;37.570;2023-06-10T13:56:46;10.85;;;1.63;;
37791;SDS011;29527;55.766;37.570;2023-06-10T13:59:12;18.38;;;2.13;;
37791;SDS011;29527;55.766;37.570;2023-06-10T14:01:37;8.15;;;1.23;;
37791;SDS011;29527;55.766;37.570;2023-06-10T14:04:03;3.63;;;1.02;;
37791;SDS011;29527;55.766;37.570;2023-06-10T14:06:29;8.32;;;1.17;;
37791;SDS011;29527;55.766;37.570;2023-06-10T14:08:56;22.25;;;2.05;;
37791;SDS011;29527;55.766;37.570;2023-06-10T14:11:21;32.65;;;2.08;;
37791;SDS011;29527;55.766;37.570;2023-06-10T14:13:47;21.15;;;1.95;;
37791;SDS011;29527;55.766;37.570;2023-06-10T14:16:12;10.93;;;1.27;;
37791;SDS011;29527;55.766;37.570;2023-06-10T14:18:38;7.57;;;1.17;;
37791;SDS011;29527;55.766;37.570;2023-06-10T14:21:03;6.95;;;1.00;;
37791;SDS011;29527;55.766;37.570;2023-06-10T14:23:30;10.35;;;1.73;;
37791;SDS011;29527;55.766;37.570;2023-06-10T14:25:55;12.15;;;1.80;;
37791;SDS011;29527;55.766;37.570;2023-06-10T14:28:21;9.32;;;1.50;;
37791;SDS011;29527;55.766;37.570;2023-06-10T14:30:46;7.82;;;1.40;;
37791;SDS011;29527;55.766;37.570;2023-06-10T14:33:12;47.10;;;3.30;;
37791;SDS011;29527;55.766;37.570;2023-06-10T14:35:37;29.88;;;2.72;;
37791;SDS011;29527;55.766;37.570;2023-06-10T14:38:03;15.00;;;1.80;;
37791;SDS011;29527;55.766;37.570;2023-06-10T14:40:29;11.95;;;1.73;;
37791;SDS011;29527;55.766;37.570;2023-06-10T14:42:54;10.55;;;1.65;;
37791;SDS011;29527;55.766;37.570;2023-06-10T14:45:20;37.28;;;2.45;;
37791;SDS011;29527;55.766;37.570;2023-06-10T14:47:46;24.73;;;2.20;;
37791;SDS011;29527;55.766;37.570;2023-06-10T14:50:12;42.67;;;2.95;;
37791;SDS011;29527;55.766;37.570;2023-06-10T14:52:38;23.20;;;2.65;;
37791;SDS011;29527;55.766;37.570;2023-06-10T14:55:04;8.48;;;1.40;;